Latest Weather Observations for Jacup

IDW60801

Issued at 9:35 pm WST Thursday 30 October 2014 (issued every 30 minutes, with the page automatically refreshed every 10 minutes)

About weather observations | Map of weather stations | Latest weather observations for WA | Other Formats
Station Details ID: 010905 Name: JACUP Lat: -33.89 Lon: 119.11 Height: 305.0 m
Data from the previous 72 hours. | See also: Recent months at Jacup
Date/Time
WST
Temp
°C
App
Temp
°C
Dew
Point
Rel
Hum
%
Delta-T
°C
Wind Press
QNH
hPa
Press
MSL
hPa
Rain
since 9 am
mm
Dir
 
Spd
km/h
Gust
km/h
Spd
kts
Gust
kts
30/09:30pm 11.9 12.0 10.0 88 1.0 SW 0 0 0 0 1011.9 1011.5 0.0
30/09:00pm 12.8 12.5 10.2 84 1.4 SE 2 6 1 3 1011.7 1011.3 0.0
30/08:30pm 14.0 12.7 11.2 83 1.5 SSE 9 13 5 7 1011.6 1011.2 0.0
30/08:00pm 14.8 13.7 11.8 82 1.6 SSE 9 15 5 8 1011.3 1010.9 0.0
30/07:30pm 15.3 12.7 12.1 81 1.8 SSE 17 24 9 13 1011.1 1010.7 0.0
30/07:00pm 15.5 13.4 12.3 81 1.8 SE 15 20 8 11 1010.6 1010.1 0.0
30/06:30pm 16.3 13.9 12.5 78 2.1 SE 17 26 9 14 1010.3 1009.9 0.0
30/06:00pm 17.5 14.5 12.4 72 2.9 SSE 20 26 11 14 1009.9 1009.5 0.0
30/05:30pm 18.8 15.2 11.9 64 3.9 SSE 22 30 12 16 1009.6 1009.2 0.0
30/05:00pm 20.6 16.9 11.5 56 5.1 SE 22 32 12 17 1009.2 1008.8 0.0
30/04:30pm 22.7 19.1 11.7 49 6.3 SE 22 32 12 17 1008.7 1008.3 0.0
30/04:00pm 24.0 20.8 12.0 47 6.9 SE 20 30 11 16 1008.5 1008.1 0.0
30/03:30pm 24.2 20.9 11.5 45 7.3 SE 20 33 11 18 1008.5 1008.1 0.0
30/03:29pm 24.3 21.0 11.6 45 7.3 SE 20 33 11 18 1008.4 1008.0 0.0
30/03:00pm 29.4 25.6 9.0 28 11.5 W 19 30 10 16 1008.1 1007.7 0.0
30/02:30pm 29.3 25.1 8.4 27 11.6 WNW 20 37 11 20 1008.2 1007.8 0.0
30/02:00pm 29.0 26.0 9.2 29 11.2 W 15 24 8 13 1008.7 1008.3 0.0
30/01:30pm 27.8 24.4 9.1 31 10.4 W 17 32 9 17 1009.3 1008.9 0.0
30/01:00pm 26.9 24.4 9.7 34 9.7 W 13 22 7 12 1009.7 1009.3 0.0
30/12:30pm 27.0 24.8 10.7 36 9.3 W 13 19 7 10 1010.1 1009.7 0.0
30/12:00pm 25.3 23.7 11.5 42 7.9 SW 11 20 6 11 1010.6 1010.1 0.0
30/11:30am 24.4 22.6 12.0 46 7.2 W 13 22 7 12 1011.1 1010.7 0.0
30/11:00am 22.0 20.7 11.1 50 6.1 WNW 9 20 5 11 1011.6 1011.2 0.0
30/10:30am 20.8 18.6 10.9 53 5.5 WSW 13 20 7 11 1012.1 1011.7 0.0
30/10:00am 19.9 18.6 11.4 58 4.7 W 9 15 5 8 1012.6 1012.2 0.0
30/09:30am 18.9 17.2 11.2 61 4.3 WSW 11 17 6 9 1012.9 1012.5 0.0
30/09:00am 17.9 16.3 11.7 67 3.4 W 11 15 6 8 1013.4 1013.0 -
30/08:30am 14.9 14.1 10.9 77 2.2 NNW 6 13 3 7 1013.7 1013.4 -
30/08:00am 14.8 14.8 11.0 78 2.0 NNW 2 9 1 5 1014.1 1013.7 -
30/07:30am 13.8 13.3 10.8 82 1.6 N 4 9 2 5 1014.5 1014.1 -
30/07:00am 13.8 12.8 11.0 83 1.5 S 7 11 4 6 1014.5 1014.1 -
30/06:30am 13.6 12.8 10.9 84 1.4 S 6 9 3 5 1013.9 1013.6 -
30/06:00am 13.5 13.8 11.0 85 1.3 CALM 0 0 0 0 1013.1 1012.7 -
30/05:30am 13.4 13.7 10.9 85 1.3 CALM 0 0 0 0 1013.0 1012.6 -
30/05:00am 13.4 13.7 10.9 85 1.3 CALM 0 0 0 0 1013.2 1012.8 -
30/04:30am 13.4 13.3 10.9 85 1.3 W 2 7 1 4 1013.3 1012.9 -
30/04:00am 13.5 13.1 11.0 85 1.3 NNW 4 7 2 4 1013.7 1013.4 -
30/03:30am 13.6 12.6 11.1 85 1.3 ENE 7 11 4 6 1013.8 1013.5 -
30/03:00am 13.6 12.3 11.1 85 1.3 NE 9 17 5 9 1014.4 1014.0 0.0
30/02:30am 13.5 11.4 11.0 85 1.3 ENE 13 19 7 10 1013.8 1013.5 -
30/02:00am 13.7 11.6 11.0 84 1.4 E 13 19 7 10 1014.3 1013.9 -
30/01:30am 13.7 11.2 11.0 84 1.4 E 15 20 8 11 1013.8 1013.5 -
30/01:00am 13.7 10.8 11.0 84 1.4 ESE 17 24 9 13 1013.8 1013.5 -
30/12:30am 13.9 11.8 11.1 83 1.5 ESE 13 19 7 10 1014.7 1014.3 -
30/12:00am 13.8 11.7 11.0 83 1.5 ESE 13 20 7 11 1014.8 1014.4 -
 
Date/Time
WST
Temp
°C
App
Temp
°C
Dew
Point
Rel
Hum
%
Delta-T
°C
Wind Press
QNH
hPa
Press
MSL
hPa
Rain
since 9 am
mm
Dir
 
Spd
km/h
Gust
km/h
Spd
kts
Gust
kts
29/11:30pm 13.8 10.9 11.0 83 1.5 ESE 17 24 9 13 1014.7 1014.3 -
29/11:00pm 14.0 11.9 11.2 83 1.5 ESE 13 19 7 10 1015.0 1014.6 -
29/10:30pm 14.0 11.9 11.2 83 1.5 ESE 13 19 7 10 1015.3 1014.9 -
29/10:00pm 13.9 11.4 11.1 83 1.5 ESE 15 19 8 10 1015.1 1014.7 -
29/09:30pm 14.0 11.5 11.2 83 1.5 SE 15 17 8 9 1015.6 1015.2 -
29/09:00pm 14.1 11.7 11.3 83 1.5 SE 15 20 8 11 1015.5 1015.1 0.0
29/08:30pm 14.0 11.5 11.2 83 1.5 SE 15 22 8 12 1015.7 1015.3 -
29/08:00pm 14.3 11.8 11.1 81 1.7 SE 15 20 8 11 1015.4 1015.0 -
29/07:30pm 14.7 12.5 10.9 78 2.0 ESE 13 20 7 11 1015.2 1014.8 -
29/07:00pm 14.6 11.6 10.6 77 2.1 ESE 17 22 9 12 1014.8 1014.4 -
29/06:30pm 14.9 12.0 10.9 77 2.2 ESE 17 20 9 11 1014.7 1014.3 -
29/06:00pm 16.0 12.7 11.0 72 2.7 ESE 19 24 10 13 1014.8 1014.4 -
29/05:30pm 17.6 14.4 11.2 66 3.5 ESE 19 28 10 15 1014.8 1014.4 -
29/05:00pm 18.5 15.2 11.6 64 3.8 SE 20 30 11 16 1014.6 1014.2 -
29/04:30pm 19.0 15.6 11.3 61 4.3 ESE 20 30 11 16 1014.6 1014.2 -
29/04:00pm 19.7 16.4 11.7 60 4.5 SE 20 30 11 16 1014.5 1014.1 -
29/03:30pm 20.0 16.9 11.7 59 4.7 ESE 19 26 10 14 1014.4 1014.0 -
29/03:00pm 19.7 16.1 12.0 61 4.3 SE 22 33 12 18 1014.2 1013.8 -
29/02:30pm 20.1 17.0 12.3 61 4.4 SE 20 32 11 17 1014.3 1013.9 -
29/02:00pm 19.3 15.6 11.6 61 4.3 ESE 22 30 12 16 1014.4 1014.0 -
29/01:30pm 19.2 15.7 12.2 64 4.0 SE 22 32 12 17 1015.3 1014.9 -
29/01:00pm 18.7 15.7 12.7 68 3.4 SSE 20 33 11 18 1015.3 1014.9 -
29/12:30pm 19.1 16.3 13.3 69 3.3 SSE 20 30 11 16 1015.4 1015.0 -
29/12:00pm 19.0 16.2 13.2 69 3.3 SSE 20 32 11 17 1015.3 1014.9 -
29/10:00am 17.1 14.4 13.6 80 2.0 SE 20 28 11 15 1016.0 1015.6 0.0
29/09:30am 16.1 13.4 13.4 84 1.5 SE 20 28 11 15 1016.0 1015.6 0.0
29/09:00am 16.2 13.7 13.5 84 1.5 SE 19 26 10 14 1015.8 1015.4 0.0
29/08:30am 15.8 13.3 13.6 87 1.3 SE 19 26 10 14 1015.7 1015.3 0.0
29/08:00am 15.2 12.8 13.9 92 0.7 ESE 19 24 10 13 1015.7 1015.3 0.0
29/07:30am 14.8 12.7 13.7 93 0.6 ESE 17 26 9 14 1015.8 1015.4 0.0
29/07:00am 14.6 12.1 13.6 94 0.6 ESE 19 26 10 14 1015.8 1015.4 0.0
29/06:30am 14.4 12.0 13.8 96 0.3 SE 19 26 10 14 1015.6 1015.2 0.0
29/06:00am 14.1 12.0 13.6 97 0.3 ESE 17 26 9 14 1015.6 1015.2 0.0
29/05:30am 14.0 11.3 13.4 96 0.3 ESE 20 30 11 16 1015.2 1014.8 0.0
29/05:00am 14.1 11.6 13.5 96 0.3 SE 19 26 10 14 1015.2 1014.8 0.0
29/04:30am 14.0 11.3 13.4 96 0.3 SE 20 28 11 15 1015.2 1014.8 0.0
29/04:00am 14.2 12.1 13.6 96 0.3 SE 17 24 9 13 1015.5 1015.1 0.0
29/03:30am 14.3 12.2 13.5 95 0.5 SE 17 24 9 13 1015.2 1014.8 0.0
29/03:00am 14.2 11.4 13.2 94 0.6 SE 20 28 11 15 1015.1 1014.7 0.0
29/02:30am 14.3 11.5 13.2 93 0.6 SE 20 26 11 14 1015.2 1014.8 0.0
29/02:00am 14.5 12.3 13.4 93 0.6 ESE 17 24 9 13 1015.5 1015.1 0.0
29/01:30am 14.4 12.2 13.3 93 0.6 ESE 17 24 9 13 1015.5 1015.1 0.0
29/01:00am 14.4 12.2 13.3 93 0.6 ESE 17 26 9 14 1015.8 1015.4 0.0
29/12:30am 14.2 11.9 12.9 92 0.7 ESE 17 24 9 13 1015.4 1015.0 0.0
29/12:00am 14.3 11.6 13.0 92 0.7 ESE 19 24 10 13 1015.7 1015.3 0.0
 
Date/Time
WST
Temp
°C
App
Temp
°C
Dew
Point
Rel
Hum
%
Delta-T
°C
Wind Press
QNH
hPa
Press
MSL
hPa
Rain
since 9 am
mm
Dir
 
Spd
km/h
Gust
km/h
Spd
kts
Gust
kts
28/11:30pm 14.3 11.7 13.2 93 0.6 ESE 19 24 10 13 1016.1 1015.7 0.0
28/11:00pm 14.3 12.0 13.0 92 0.7 ESE 17 22 9 12 1016.2 1015.8 0.0
28/10:30pm 14.3 12.0 13.0 92 0.7 ESE 17 24 9 13 1016.3 1016.0 0.0
28/10:00pm 14.3 12.0 13.0 92 0.7 E 17 26 9 14 1016.2 1015.8 0.0
28/09:30pm 14.2 11.9 12.9 92 0.7 E 17 24 9 13 1016.4 1016.1 0.0
28/09:00pm 13.9 12.2 12.3 90 0.9 E 13 17 7 9 1016.6 1016.3 0.0
28/08:30pm 14.3 12.6 12.3 88 1.1 ESE 13 19 7 10 1016.7 1016.4 0.0
28/08:00pm 14.7 13.4 12.4 86 1.3 ESE 11 15 6 8 1016.5 1016.2 0.0
28/07:30pm 15.1 13.0 12.4 84 1.5 ESE 15 22 8 12 1016.2 1015.8 0.0
28/07:00pm 15.8 13.7 12.5 81 1.8 ESE 15 20 8 11 1015.9 1015.5 0.0
28/06:30pm 16.4 14.3 12.4 77 2.2 ESE 15 24 8 13 1015.8 1015.4 0.0
28/06:00pm 17.4 14.9 12.3 72 2.9 ESE 17 24 9 13 1015.9 1015.5 0.0
28/05:30pm 18.0 15.5 12.2 69 3.3 ESE 17 24 9 13 1015.9 1015.5 0.0
28/05:00pm 18.7 15.6 12.2 66 3.7 ESE 20 26 11 14 1015.7 1015.3 0.0
28/04:30pm 20.0 16.9 12.3 61 4.4 ESE 20 28 11 15 1015.4 1015.0 0.0
28/04:00pm 20.5 16.6 12.0 58 4.8 ESE 24 32 13 17 1015.3 1014.9 0.0
28/03:30pm 23.4 18.8 12.4 50 6.4 ESE 28 39 15 21 1015.2 1014.8 0.0
28/03:00pm 25.4 21.7 12.6 45 7.5 ESE 24 37 13 20 1015.1 1014.7 0.0
28/02:30pm 26.7 24.7 11.6 39 8.7 E 13 24 7 13 1015.3 1014.9 0.0
28/02:00pm 29.4 26.4 7.9 26 11.9 W 13 24 7 13 1015.6 1015.2 0.0
28/01:30pm 26.8 24.5 7.3 29 10.5 N 9 20 5 11 1016.1 1015.7 0.0
28/01:00pm 26.9 25.4 9.3 33 9.8 NW 7 15 4 8 1016.6 1016.3 0.0
28/12:30pm 25.8 24.2 8.8 34 9.3 NW 7 24 4 13 1017.0 1016.7 0.0
28/12:00pm 24.1 22.2 8.9 38 8.3 NE 9 17 5 9 1017.6 1017.2 0.0
28/11:30am 23.2 20.6 9.2 41 7.6 NE 13 24 7 13 1018.0 1017.6 0.0
28/11:00am 22.5 19.9 9.3 43 7.2 ENE 13 20 7 11 1018.4 1018.0 0.0
28/10:30am 21.7 19.0 10.2 48 6.3 NE 15 22 8 12 1018.9 1018.5 0.0
28/10:00am 20.3 17.1 9.8 51 5.7 NE 17 22 9 12 1019.5 1019.2 0.0
28/09:30am 19.0 16.2 10.0 56 4.9 NE 15 22 8 12 1019.9 1019.6 0.0
28/09:00am 17.5 14.3 9.9 61 4.1 NE 17 24 9 13 1020.1 1019.8 0.0
28/08:30am 16.4 13.2 10.0 66 3.4 NE 17 26 9 14 1020.3 1020.0 0.0
28/08:00am 14.4 11.1 9.4 72 2.6 NE 17 26 9 14 1020.5 1020.2 0.0
28/07:30am 13.6 10.2 9.3 75 2.2 NE 17 28 9 15 1020.6 1020.3 0.0
28/07:00am 13.0 9.6 9.1 77 2.0 ENE 17 24 9 13 1021.0 1020.6 0.0
28/06:30am 13.0 10.0 9.4 79 1.9 NE 15 22 8 12 1021.1 1020.7 0.0
28/06:00am 12.7 10.6 9.9 83 1.5 ENE 11 15 6 8 1021.2 1020.8 0.0
28/05:30am 12.0 10.3 9.7 86 1.2 ENE 9 17 5 9 1021.1 1020.7 0.0
28/05:00am 11.7 9.9 9.6 87 1.1 E 9 11 5 6 1020.7 1020.4 0.0
28/04:30am 12.1 10.8 9.8 86 1.2 E 7 11 4 6 1020.7 1020.4 0.0
28/04:00am 12.4 11.1 10.0 85 1.2 E 7 11 4 6 1020.7 1020.4 0.0
28/03:30am 12.2 10.9 10.1 87 1.1 E 7 11 4 6 1021.0 1020.6 0.0
28/03:00am 12.2 11.2 10.4 89 0.9 E 6 7 3 4 1021.1 1020.7 0.0
28/02:30am 12.1 11.2 10.5 90 0.8 E 6 7 3 4 1021.1 1020.7 0.0
28/02:00am 12.1 11.1 10.3 89 0.9 E 6 7 3 4 1021.1 1020.7 0.0
28/01:30am 12.0 10.7 10.1 88 1.0 ESE 7 11 4 6 1021.1 1020.7 0.0
28/01:00am 11.8 10.7 10.0 89 0.9 E 6 7 3 4 1021.3 1020.9 0.0
28/12:30am 11.3 10.1 9.6 89 0.9 E 6 9 3 5 1021.5 1021.1 0.0
28/12:00am 11.0 9.5 9.3 89 0.9 E 7 11 4 6 1021.8 1021.4 0.0
 
Date/Time
WST
Temp
°C
App
Temp
°C
Dew
Point
Rel
Hum
%
Delta-T
°C
Wind Press
QNH
hPa
Press
MSL
hPa
Rain
since 9 am
mm
Dir
 
Spd
km/h
Gust
km/h
Spd
kts
Gust
kts
27/11:30pm 10.2 8.7 9.0 92 0.6 E 7 9 4 5 1022.0 1021.7 0.0
27/11:00pm 9.2 7.4 7.8 91 0.7 ESE 7 9 4 5 1022.1 1021.8 0.0
27/10:30pm 9.6 7.5 8.2 91 0.7 SE 9 11 5 6 1022.2 1021.9 0.0
27/10:00pm 9.4 7.2 7.7 89 0.8 SE 9 13 5 7 1022.4 1022.1 0.0

Other Formats:

Comma delimited format used in spreadsheet applications
http://www.bom.gov.au/fwo/IDW60801/IDW60801.95636.axf

JavaScript Object Notation format (JSON) in row-major order
http://www.bom.gov.au/fwo/IDW60801/IDW60801.95636.json